createdAt,value
2018-02-02T00:00:50.857Z,92.91
2018-02-02T00:03:18.527Z,92.26
2018-02-02T00:05:46.288Z,91.92
2018-02-02T00:08:14.128Z,92.03
2018-02-02T00:10:41.828Z,92.28
2018-02-02T00:13:09.916Z,92.34
2018-02-02T00:15:37.640Z,92.65
2018-02-02T00:18:05.344Z,92.53
2018-02-02T00:20:33.039Z,93.24
2018-02-02T00:23:00.906Z,93.22
2018-02-02T00:25:28.595Z,92.92
2018-02-02T00:27:56.948Z,92.83
2018-02-02T00:30:24.654Z,92.55
2018-02-02T00:32:52.418Z,93.02
2018-02-02T00:35:20.172Z,92.89
2018-02-02T00:37:47.914Z,92.88
2018-02-02T00:40:15.636Z,93.03
2018-02-02T00:42:43.376Z,92.98
2018-02-02T00:45:11.205Z,92.57
2018-02-02T00:47:39.122Z,92.77
2018-02-02T00:50:06.981Z,92.88
2018-02-02T00:52:34.715Z,92.60
2018-02-02T00:55:02.563Z,93.68
2018-02-02T00:57:30.276Z,93.59
2018-02-02T00:59:58.042Z,93.20
2018-02-02T01:02:25.773Z,93.28
2018-02-02T01:04:53.439Z,92.76
2018-02-02T01:07:21.146Z,92.47
2018-02-02T01:09:48.877Z,92.34
2018-02-02T01:12:16.641Z,92.85
2018-02-02T01:14:44.325Z,93.49
2018-02-02T01:17:12.092Z,92.98
2018-02-02T01:19:39.868Z,92.70
2018-02-02T01:22:07.657Z,92.33
2018-02-02T01:24:35.364Z,92.93
2018-02-02T01:27:03.163Z,93.32
2018-02-02T01:29:30.859Z,93.09
2018-02-02T01:31:58.611Z,92.88
2018-02-02T01:34:26.385Z,92.64
2018-02-02T01:36:54.071Z,92.48
2018-02-02T01:39:22.119Z,92.22
2018-02-02T01:41:49.893Z,92.08
2018-02-02T01:44:17.596Z,91.53
2018-02-02T01:46:45.398Z,91.37
2018-02-02T01:49:13.138Z,90.63
2018-02-02T01:51:40.944Z,91.01
2018-02-02T01:54:08.699Z,91.43
2018-02-02T01:56:36.364Z,91.82
2018-02-02T01:59:04.068Z,91.56
2018-02-02T02:01:31.842Z,91.54
2018-02-02T02:03:59.719Z,91.92
2018-02-02T02:06:27.433Z,91.94
2018-02-02T02:08:55.166Z,92.15
2018-02-02T02:11:22.834Z,92.16
2018-02-02T02:13:50.556Z,92.25
2018-02-02T02:16:18.340Z,92.41
2018-02-02T02:18:46.149Z,92.35
2018-02-02T02:21:13.836Z,92.60
2018-02-02T02:23:41.510Z,92.73
2018-02-02T02:26:09.306Z,92.41
2018-02-02T02:28:37.382Z,92.47
2018-02-02T02:31:05.089Z,92.55
2018-02-02T02:33:32.861Z,92.82
2018-02-02T02:36:00.564Z,93.04
2018-02-02T02:38:28.270Z,92.92
2018-02-02T02:40:56.137Z,92.59
2018-02-02T02:43:23.858Z,93.02
2018-02-02T02:45:51.521Z,93.02
2018-02-02T02:48:19.244Z,92.41
2018-02-02T02:50:46.979Z,92.26
2018-02-02T02:53:14.658Z,92.04
2018-02-02T02:55:42.346Z,91.91
2018-02-02T02:58:10.089Z,91.89
2018-02-02T03:00:37.865Z,92.17
2018-02-02T03:03:05.618Z,92.04
2018-02-02T03:05:33.399Z,91.73
2018-02-02T03:08:01.148Z,91.94
2018-02-02T03:10:28.900Z,92.45
2018-02-02T03:12:56.628Z,92.65
2018-02-02T03:15:24.461Z,92.97
2018-02-02T03:17:52.128Z,92.94
2018-02-02T03:20:19.841Z,92.96
2018-02-02T03:22:47.521Z,92.78
2018-02-02T03:25:15.252Z,92.38
2018-02-02T03:27:42.938Z,92.18
2018-02-02T03:30:10.767Z,92.22
2018-02-02T03:32:38.526Z,91.95
2018-02-02T03:35:06.279Z,92.14
2018-02-02T03:37:34.110Z,91.95
2018-02-02T03:40:01.819Z,92.01
2018-02-02T03:42:29.592Z,92.28
2018-02-02T03:44:57.298Z,92.42
2018-02-02T03:47:25.376Z,92.50
2018-02-02T03:49:53.445Z,92.48
2018-02-02T03:52:21.133Z,92.32
2018-02-02T03:54:48.848Z,92.78
2018-02-02T03:57:16.571Z,93.51
2018-02-02T03:59:44.230Z,93.34
2018-02-02T04:02:11.996Z,92.94
2018-02-02T04:04:39.973Z,92.69
2018-02-02T04:07:07.720Z,92.32
2018-02-02T04:09:35.772Z,92.31
2018-02-02T04:12:03.507Z,92.30
2018-02-02T04:14:31.248Z,92.14
2018-02-02T04:16:58.946Z,92.41
2018-02-02T04:19:26.670Z,92.40
2018-02-02T04:21:54.414Z,92.54
2018-02-02T04:24:22.089Z,93.10
2018-02-02T04:26:49.827Z,93.04
2018-02-02T04:29:17.546Z,92.75
2018-02-02T04:31:45.316Z,92.61
2018-02-02T04:34:13.139Z,92.17
2018-02-02T04:36:40.939Z,92.17
2018-02-02T04:39:08.650Z,92.70
2018-02-02T04:41:36.364Z,92.52
2018-02-02T04:44:04.168Z,92.29
2018-02-02T04:46:31.874Z,92.17
2018-02-02T04:48:59.678Z,92.56
2018-02-02T04:51:27.373Z,92.16
2018-02-02T04:53:55.133Z,92.42
2018-02-02T04:56:22.809Z,92.07
2018-02-02T04:58:50.505Z,93.28
2018-02-02T05:01:18.344Z,93.72
2018-02-02T05:03:46.034Z,94.18
2018-02-02T05:06:13.812Z,94.35
2018-02-02T05:08:41.536Z,94.38
2018-02-02T05:11:09.205Z,93.85
2018-02-02T05:13:36.959Z,93.88
2018-02-02T05:16:04.812Z,94.17
2018-02-02T05:18:32.532Z,93.71
2018-02-02T05:21:00.255Z,93.51
2018-02-02T05:23:27.932Z,94.24
2018-02-02T05:25:55.666Z,93.73
2018-02-02T05:28:23.432Z,93.92
2018-02-02T05:30:51.168Z,94.35
2018-02-02T05:33:18.916Z,94.33
2018-02-02T05:35:46.614Z,94.51
2018-02-02T05:38:14.287Z,94.70
2018-02-02T05:40:42.083Z,94.62
2018-02-02T05:43:09.872Z,93.93
2018-02-02T05:45:37.564Z,93.65
2018-02-02T05:48:05.293Z,93.37
2018-02-02T05:50:33.046Z,93.46
2018-02-02T05:53:00.834Z,93.29
2018-02-02T05:55:28.565Z,93.21
2018-02-02T05:57:56.397Z,93.60
2018-02-02T06:00:24.167Z,94.17
2018-02-02T06:02:52.804Z,94.39
2018-02-02T06:05:20.557Z,94.55
2018-02-02T06:07:48.220Z,94.22
2018-02-02T06:10:15.951Z,93.50
2018-02-02T06:12:43.623Z,92.95
2018-02-02T06:15:11.382Z,92.98
2018-02-02T06:17:39.059Z,92.98
2018-02-02T06:20:06.797Z,93.31
2018-02-02T06:22:34.519Z,93.65
2018-02-02T06:25:02.301Z,93.85
2018-02-02T06:27:30.051Z,94.07
2018-02-02T06:29:57.850Z,93.98
2018-02-02T06:32:25.578Z,93.47
2018-02-02T06:34:53.312Z,93.33
2018-02-02T06:37:21.061Z,93.23
2018-02-02T06:39:48.771Z,93.76
2018-02-02T06:42:16.649Z,94.08
2018-02-02T06:44:44.334Z,94.07
2018-02-02T06:47:12.089Z,94.15
2018-02-02T06:49:39.917Z,93.70
2018-02-02T06:52:07.747Z,93.10
2018-02-02T06:54:35.731Z,92.30
2018-02-02T06:57:03.537Z,92.49
2018-02-02T06:59:31.316Z,92.30
2018-02-02T07:01:59.201Z,92.21
2018-02-02T07:04:26.876Z,92.03
2018-02-02T07:06:54.678Z,92.40
2018-02-02T07:09:22.441Z,93.32
2018-02-02T07:11:50.115Z,93.21
2018-02-02T07:14:17.836Z,93.52
2018-02-02T07:16:45.947Z,93.81
2018-02-02T07:19:13.683Z,94.06
2018-02-02T07:21:41.522Z,93.96
2018-02-02T07:24:09.338Z,93.70
2018-02-02T07:26:37.081Z,93.72
2018-02-02T07:29:04.778Z,93.63
2018-02-02T07:31:32.547Z,93.36
2018-02-02T07:34:00.259Z,93.42
2018-02-02T07:36:28.005Z,93.71
2018-02-02T07:38:55.749Z,93.79
2018-02-02T07:41:23.451Z,94.04
2018-02-02T07:43:51.182Z,94.09
2018-02-02T07:46:18.867Z,93.79
2018-02-02T07:48:46.626Z,93.65
2018-02-02T07:51:14.375Z,93.69
2018-02-02T07:53:42.295Z,93.79
2018-02-02T07:56:09.978Z,93.15
2018-02-02T07:58:37.698Z,93.07
2018-02-02T08:01:11.023Z,92.70
2018-02-02T08:03:38.871Z,92.24
2018-02-02T08:06:06.787Z,92.91
2018-02-02T08:08:34.488Z,93.07
2018-02-02T08:11:02.208Z,93.22
2018-02-02T08:13:29.957Z,93.12
2018-02-02T08:15:57.663Z,92.71
2018-02-02T08:18:25.356Z,92.04
2018-02-02T08:20:53.148Z,92.19
2018-02-02T08:23:20.898Z,92.99
2018-02-02T08:25:48.573Z,92.57
2018-02-02T08:28:16.328Z,92.28
2018-02-02T08:30:44.065Z,92.15
2018-02-02T08:33:11.756Z,92.26
2018-02-02T08:35:39.500Z,92.01
2018-02-02T08:38:07.193Z,92.80
2018-02-02T08:40:35.015Z,92.96
2018-02-02T08:43:02.697Z,92.72
2018-02-02T08:45:30.363Z,92.64
2018-02-02T08:47:58.171Z,92.47
2018-02-02T08:50:26.274Z,92.56
2018-02-02T08:52:54.337Z,92.78
2018-02-02T08:55:22.455Z,91.98
2018-02-02T08:57:50.504Z,90.40
2018-02-02T09:00:18.558Z,89.60
2018-02-02T09:02:46.646Z,88.97
2018-02-02T09:05:14.316Z,88.84
2018-02-02T09:07:42.130Z,89.77
2018-02-02T09:10:09.859Z,89.21
2018-02-02T09:12:37.602Z,89.30
2018-02-02T09:15:05.326Z,89.87
2018-02-02T09:17:33.177Z,89.90
2018-02-02T09:20:00.869Z,90.43
2018-02-02T09:22:28.626Z,90.12
2018-02-02T09:24:56.485Z,89.69
2018-02-02T09:27:23.721Z,87.72
2018-02-02T09:29:51.570Z,89.48
2018-02-02T09:32:19.521Z,90.04
2018-02-02T09:34:47.303Z,89.67
2018-02-02T09:37:15.167Z,90.08
2018-02-02T09:39:43.102Z,89.92
2018-02-02T09:42:10.852Z,89.29
2018-02-02T09:44:38.520Z,90.06
2018-02-02T09:47:06.271Z,90.19
2018-02-02T09:49:34.009Z,89.71
2018-02-02T09:52:01.739Z,87.79
2018-02-02T09:54:29.422Z,87.55
2018-02-02T09:56:57.170Z,87.65
2018-02-02T09:59:25.138Z,88.65
2018-02-02T10:01:53.210Z,89.35
2018-02-02T10:04:21.202Z,89.29
2018-02-02T10:06:49.042Z,89.18
2018-02-02T10:09:17.629Z,88.80
2018-02-02T10:11:45.623Z,89.73
2018-02-02T10:14:14.367Z,91.15
2018-02-02T10:16:42.289Z,90.05
2018-02-02T10:19:10.179Z,89.53
2018-02-02T10:21:38.167Z,87.88
2018-02-02T10:24:06.064Z,88.04
2018-02-02T10:26:33.928Z,88.76
2018-02-02T10:29:01.975Z,88.64
2018-02-02T10:31:30.013Z,88.32
2018-02-02T10:33:57.972Z,88.21
2018-02-02T10:36:25.830Z,87.55
2018-02-02T10:38:54.664Z,88.48
2018-02-02T10:41:22.659Z,88.43
2018-02-02T10:43:50.531Z,88.56
2018-02-02T10:46:18.397Z,89.25
2018-02-02T10:48:46.232Z,89.90
2018-02-02T10:51:15.469Z,89.14
2018-02-02T10:53:43.515Z,89.02
2018-02-02T10:56:12.407Z,88.33
2018-02-02T10:58:40.451Z,88.47
2018-02-02T11:04:09.592Z,90.27
2018-02-02T11:06:37.703Z,89.09
2018-02-02T11:09:05.628Z,87.78
2018-02-02T11:11:33.495Z,88.47
2018-02-02T11:14:01.363Z,88.59
2018-02-02T11:16:29.731Z,89.36
2018-02-02T11:18:57.847Z,89.81
2018-02-02T11:21:25.864Z,88.31
2018-02-02T11:23:53.997Z,87.43
2018-02-02T11:26:22.796Z,88.17
2018-02-02T11:28:50.663Z,89.27
2018-02-02T11:31:18.528Z,87.90
2018-02-02T11:33:46.549Z,89.19
2018-02-02T11:36:14.555Z,86.65
2018-02-02T11:38:42.622Z,87.50
2018-02-02T11:41:10.398Z,87.74
2018-02-02T11:43:38.517Z,88.40
2018-02-02T11:46:06.588Z,89.52
2018-02-02T11:48:34.576Z,88.83
2018-02-02T11:51:02.377Z,88.32
2018-02-02T11:53:30.395Z,89.01
2018-02-02T11:55:58.514Z,88.70
2018-02-02T11:58:28.417Z,88.72
2018-02-02T12:00:56.602Z,87.83
2018-02-02T12:03:25.324Z,87.53
2018-02-02T12:05:54.567Z,88.44
2018-02-02T12:08:22.866Z,88.86
2018-02-02T12:10:50.924Z,89.95
2018-02-02T12:13:18.926Z,89.65
2018-02-02T12:15:47.085Z,89.44
2018-02-02T12:18:15.355Z,89.97
2018-02-02T12:20:44.324Z,90.62
2018-02-02T12:23:23.090Z,89.73
2018-02-02T12:25:56.653Z,89.98
2018-02-02T12:28:30.247Z,89.79
2018-02-02T12:31:09.205Z,88.10
2018-02-02T12:36:41.398Z,89.46
2018-02-02T12:39:09.363Z,88.86
2018-02-02T12:41:37.404Z,88.59
2018-02-02T12:44:05.404Z,88.91
2018-02-02T12:46:34.297Z,88.68
2018-02-02T12:49:06.055Z,88.41
2018-02-02T12:51:34.229Z,87.69
2018-02-02T12:54:02.162Z,89.43
2018-02-02T12:56:30.029Z,88.96
2018-02-02T12:58:57.893Z,89.21
2018-02-02T13:01:26.006Z,89.02
2018-02-02T13:03:53.952Z,88.37
2018-02-02T13:06:21.994Z,88.88
2018-02-02T13:08:50.128Z,87.71
2018-02-02T13:11:18.054Z,87.59
2018-02-02T13:13:45.920Z,88.62
2018-02-02T13:16:14.967Z,88.92
2018-02-02T13:18:42.718Z,88.35
2018-02-02T13:21:11.975Z,88.61
2018-02-02T13:23:40.063Z,88.71
2018-02-02T13:26:08.159Z,88.99
2018-02-02T13:28:36.220Z,89.82
2018-02-02T13:31:04.304Z,89.78
2018-02-02T13:33:32.205Z,89.18
2018-02-02T13:36:00.200Z,89.13
2018-02-02T13:38:28.067Z,88.36
2018-02-02T13:40:56.159Z,87.55
2018-02-02T13:43:24.001Z,87.22
2018-02-02T13:45:52.121Z,87.78
2018-02-02T13:48:20.079Z,87.81
2018-02-02T13:50:47.908Z,87.68
2018-02-02T13:53:15.738Z,88.95
2018-02-02T13:55:43.795Z,88.70
2018-02-02T13:58:12.452Z,88.13
2018-02-02T14:00:41.367Z,87.97
2018-02-02T14:03:09.251Z,87.75
2018-02-02T14:05:37.952Z,87.40
2018-02-02T14:08:05.998Z,88.00
2018-02-02T14:10:34.014Z,87.46
2018-02-02T14:13:01.782Z,87.84
2018-02-02T14:15:29.897Z,88.23
2018-02-02T14:17:58.186Z,88.39
2018-02-02T14:20:26.105Z,87.00
2018-02-02T14:22:56.138Z,86.36
2018-02-02T14:25:24.243Z,86.26
2018-02-02T14:27:52.320Z,86.11
2018-02-02T14:30:20.757Z,85.99
2018-02-02T14:32:49.083Z,86.74
2018-02-02T14:35:17.113Z,86.33
2018-02-02T14:37:45.862Z,87.39
2018-02-02T14:40:14.919Z,88.04
2018-02-02T14:42:44.709Z,87.98
2018-02-02T14:45:12.708Z,88.25
2018-02-02T14:47:40.769Z,88.24
2018-02-02T14:50:08.852Z,87.69
2018-02-02T14:52:38.029Z,87.48
2018-02-02T14:55:06.226Z,87.29
2018-02-02T14:57:35.937Z,87.42
2018-02-02T15:00:04.202Z,87.28
2018-02-02T15:02:33.112Z,86.84
2018-02-02T15:05:01.235Z,87.09
2018-02-02T15:07:29.256Z,87.50
2018-02-02T15:09:57.273Z,87.93
2018-02-02T15:12:25.413Z,88.23
2018-02-02T15:14:53.461Z,88.52
2018-02-02T15:17:23.201Z,88.40
2018-02-02T15:19:52.888Z,88.29
2018-02-02T15:22:22.859Z,88.25
2018-02-02T15:24:51.147Z,87.97
2018-02-02T15:27:19.039Z,87.82
2018-02-02T15:29:47.311Z,87.50
2018-02-02T15:32:15.394Z,87.58
2018-02-02T15:34:43.446Z,88.10
2018-02-02T15:37:12.531Z,88.13
2018-02-02T15:39:41.302Z,88.87
2018-02-02T15:42:09.319Z,89.10
2018-02-02T15:44:37.258Z,89.04
2018-02-02T15:47:05.348Z,88.95
2018-02-02T15:49:34.241Z,89.11
2018-02-02T15:52:02.125Z,89.19
2018-02-02T15:54:30.190Z,89.33
2018-02-02T15:56:58.266Z,89.57
2018-02-02T15:59:27.972Z,89.75
2018-02-02T16:01:56.045Z,89.77
2018-02-02T16:04:24.069Z,91.26
2018-02-02T16:06:52.985Z,91.39
2018-02-02T16:09:21.795Z,91.08
2018-02-02T16:11:49.842Z,90.72
2018-02-02T16:14:17.939Z,91.85
2018-02-02T16:16:45.878Z,92.27
2018-02-02T16:19:13.880Z,92.12
2018-02-02T16:21:41.944Z,91.45
2018-02-02T16:24:10.025Z,91.09
2018-02-02T16:26:38.199Z,90.63
2018-02-02T16:29:06.192Z,91.85
2018-02-02T16:31:35.158Z,91.37
2018-02-02T16:34:03.131Z,90.72
2018-02-02T16:36:31.203Z,90.82
2018-02-02T16:38:59.332Z,91.02
2018-02-02T16:41:27.534Z,91.41
2018-02-02T16:43:55.690Z,91.54
2018-02-02T16:46:23.680Z,91.40
2018-02-02T16:48:51.623Z,91.14
2018-02-02T16:51:19.551Z,91.05
2018-02-02T16:53:47.605Z,91.00
2018-02-02T16:56:16.600Z,91.24
2018-02-02T16:58:44.474Z,90.99
2018-02-02T17:01:12.544Z,90.66
2018-02-02T17:03:40.609Z,90.75
2018-02-02T17:06:08.713Z,90.88
2018-02-02T17:08:37.842Z,91.00
2018-02-02T17:11:05.852Z,90.86
2018-02-02T17:13:33.918Z,90.83
2018-02-02T17:16:01.797Z,90.88
2018-02-02T17:18:29.886Z,90.74
2018-02-02T17:20:58.700Z,91.54
2018-02-02T17:23:27.500Z,91.50
2018-02-02T17:25:55.610Z,91.54
2018-02-02T17:28:23.620Z,91.33
2018-02-02T17:30:51.537Z,90.94
2018-02-02T17:33:19.581Z,91.10
2018-02-02T17:35:47.675Z,91.13
2018-02-02T17:38:16.337Z,90.85
2018-02-02T17:40:45.088Z,90.98
2018-02-02T17:43:12.996Z,91.62
2018-02-02T17:45:41.009Z,91.73
2018-02-02T17:48:08.987Z,91.52
2018-02-02T17:50:37.023Z,91.03
2018-02-02T17:53:05.324Z,90.72
2018-02-02T17:55:33.230Z,90.42
2018-02-02T17:58:03.928Z,90.58
2018-02-02T18:03:34.790Z,90.82
2018-02-02T18:06:03.470Z,90.62
2018-02-02T18:08:31.544Z,90.77
2018-02-02T18:10:59.619Z,90.88
2018-02-02T18:13:27.689Z,91.04
2018-02-02T18:15:55.750Z,92.36
2018-02-02T18:18:23.830Z,91.93
2018-02-02T18:20:51.664Z,91.42
2018-02-02T18:23:19.664Z,91.03
2018-02-02T18:25:47.738Z,90.58
2018-02-02T18:28:16.220Z,90.63
2018-02-02T18:30:45.218Z,90.49
2018-02-02T18:33:13.968Z,91.69
2018-02-02T18:35:41.972Z,91.63
2018-02-02T18:38:10.029Z,91.16
2018-02-02T18:40:38.071Z,90.92
2018-02-02T18:43:06.618Z,91.29
2018-02-02T18:45:34.875Z,91.21
2018-02-02T18:48:04.344Z,91.47
2018-02-02T18:50:33.289Z,91.26
2018-02-02T18:53:03.204Z,91.07
2018-02-02T18:55:32.369Z,90.98
2018-02-02T18:58:00.458Z,92.59
2018-02-02T19:00:28.763Z,92.39
2018-02-02T19:02:57.934Z,91.87
2018-02-02T19:05:26.780Z,91.43
2018-02-02T19:07:55.631Z,91.25
2018-02-02T19:10:23.649Z,91.07
2018-02-02T19:12:52.879Z,90.39
2018-02-02T19:15:22.086Z,90.85
2018-02-02T19:17:50.410Z,90.90
2018-02-02T19:20:18.835Z,90.20
2018-02-02T19:22:46.857Z,90.18
2018-02-02T19:25:14.728Z,90.26
2018-02-02T19:27:43.159Z,91.83
2018-02-02T19:30:14.093Z,90.83
2018-02-02T19:32:42.472Z,90.41
2018-02-02T19:35:10.618Z,90.74
2018-02-02T19:37:38.849Z,90.73
2018-02-02T19:40:08.125Z,90.56
2018-02-02T19:42:37.482Z,90.74
2018-02-02T19:45:06.055Z,91.37
2018-02-02T19:47:34.158Z,91.38
2018-02-02T19:50:03.089Z,91.19
2018-02-02T19:52:30.997Z,91.44
2018-02-02T19:54:58.969Z,91.14
2018-02-02T19:57:26.745Z,90.88
2018-02-02T19:59:54.619Z,90.69
2018-02-02T20:02:22.362Z,90.78
2018-02-02T20:04:50.818Z,90.78
2018-02-02T20:07:18.657Z,90.70
2018-02-02T20:09:46.538Z,91.39
2018-02-02T20:12:14.264Z,91.74
2018-02-02T20:14:43.084Z,91.42
2018-02-02T20:17:10.976Z,90.97
2018-02-02T20:19:38.723Z,90.92
2018-02-02T20:22:06.521Z,90.69
2018-02-02T20:24:35.409Z,90.47
2018-02-02T20:27:03.645Z,90.67
2018-02-02T20:29:32.788Z,90.88
2018-02-02T20:32:00.934Z,91.02
2018-02-02T20:34:28.940Z,91.32
2018-02-02T20:36:56.721Z,91.32
2018-02-02T20:39:25.349Z,91.23
2018-02-02T20:41:55.128Z,91.24
2018-02-02T20:44:24.897Z,91.78
2018-02-02T20:46:53.435Z,92.88
2018-02-02T20:49:22.618Z,93.38
2018-02-02T20:51:50.892Z,93.95
2018-02-02T20:54:18.808Z,94.42
2018-02-02T20:56:48.073Z,95.21
2018-02-02T20:59:16.163Z,96.01
2018-02-02T21:01:44.305Z,96.16
2018-02-02T21:04:12.399Z,95.07
2018-02-02T21:06:41.443Z,94.12
2018-02-02T21:09:09.288Z,94.00
2018-02-02T21:11:37.579Z,93.92
2018-02-02T21:14:05.273Z,93.74
2018-02-02T21:16:33.463Z,93.32
2018-02-02T21:19:03.303Z,93.40
2018-02-02T21:21:31.571Z,93.34
2018-02-02T21:24:03.423Z,93.24
2018-02-02T21:26:31.392Z,93.13
2018-02-02T21:28:59.841Z,92.66
2018-02-02T21:31:27.917Z,92.38
2018-02-02T21:33:56.079Z,92.53
2018-02-02T21:36:24.070Z,92.19
2018-02-02T21:38:53.662Z,92.69
2018-02-02T21:41:21.423Z,93.10
2018-02-02T21:43:49.222Z,92.40
2018-02-02T21:46:17.824Z,91.93
2018-02-02T21:48:45.884Z,91.50
2018-02-02T21:51:13.956Z,91.37
2018-02-02T21:53:42.015Z,91.11
2018-02-02T21:56:10.099Z,90.87
2018-02-02T21:58:38.023Z,91.75
2018-02-02T22:01:05.835Z,92.56
2018-02-02T22:03:33.868Z,92.00
2018-02-02T22:06:01.878Z,91.86
2018-02-02T22:08:30.735Z,91.93
2018-02-02T22:10:59.231Z,92.42
2018-02-02T22:13:27.043Z,93.33
2018-02-02T22:15:54.773Z,93.74
2018-02-02T22:18:22.951Z,93.79
2018-02-02T22:20:50.877Z,93.86
2018-02-02T22:23:18.771Z,93.81
2018-02-02T22:25:46.863Z,93.05
2018-02-02T22:28:14.889Z,92.38
2018-02-02T22:30:42.795Z,92.11
2018-02-02T22:33:11.390Z,91.93
2018-02-02T22:35:39.334Z,93.22
2018-02-02T22:38:07.247Z,94.10
2018-02-02T22:40:35.393Z,94.58
2018-02-02T22:43:03.481Z,94.40
2018-02-02T22:45:31.471Z,94.13
2018-02-02T22:47:59.316Z,93.84
2018-02-02T22:50:27.449Z,94.10
2018-02-02T22:52:55.544Z,94.35
2018-02-02T22:55:24.512Z,94.79
2018-02-02T22:57:52.519Z,94.16
2018-02-02T23:00:20.448Z,92.89
2018-02-02T23:02:48.558Z,92.62
2018-02-02T23:05:17.429Z,91.96
2018-02-02T23:07:45.294Z,91.16
2018-02-02T23:10:13.385Z,91.20
2018-02-02T23:12:41.458Z,92.46
2018-02-02T23:15:09.371Z,92.47
2018-02-02T23:17:37.398Z,91.51
2018-02-02T23:20:05.474Z,91.35
2018-02-02T23:22:33.522Z,91.42
2018-02-02T23:25:01.566Z,91.07
2018-02-02T23:27:30.507Z,90.96
2018-02-02T23:29:58.524Z,90.60
2018-02-02T23:32:26.614Z,91.00
2018-02-02T23:34:54.718Z,91.11
2018-02-02T23:37:22.789Z,90.62
2018-02-02T23:39:50.864Z,89.94
2018-02-02T23:42:18.906Z,90.10
2018-02-02T23:44:46.847Z,89.90
2018-02-02T23:47:14.766Z,90.09
2018-02-02T23:49:43.561Z,90.16
2018-02-02T23:52:11.377Z,90.28
2018-02-02T23:54:39.345Z,91.59
2018-02-02T23:57:07.583Z,92.47
2018-02-02T23:59:35.375Z,92.38
